Time;durP1;ratioP1;P1;durP2;ratioP2;P2;SDS_P1;SDS_P2;PMS_P1;PMS_P2;Temp;Humidity;BMP_temperature;BMP_pressure;BME280_temperature;BME280_humidity;BME280_pressure;Samples;Min_cycle;Max_cycle;Signal;HPM_P1;HPM_P2
2022/09/06 00:00:57;;;;;;;5.60;3.53;;;;;;;;;;5082646;28;20229;-16
2022/09/06 00:03:26;;;;;;;6.28;3.75;;;;;;;;;;5082862;28;20716;-16
2022/09/06 00:05:53;;;;;;;7.90;3.63;;;;;;;;;;5085781;28;20236;-16
2022/09/06 00:08:22;;;;;;;8.05;3.75;;;;;;;;;;5084861;28;20221;-16
2022/09/06 00:10:56;;;;;;;5.10;2.90;;;;;;;;;;5081086;28;20332;-16
2022/09/06 00:13:27;;;;;;;5.10;3.38;;;;;;;;;;5076573;28;20234;-16
2022/09/06 00:15:55;;;;;;;5.63;3.05;;;;;;;;;;5071424;28;20229;-17
2022/09/06 00:18:22;;;;;;;5.70;3.22;;;;;;;;;;5077665;28;20241;-16
2022/09/06 00:20:49;;;;;;;5.00;3.08;;;;;;;;;;5076914;28;20244;-16
2022/09/06 00:23:17;;;;;;;4.47;3.05;;;;;;;;;;5070732;28;20592;-16
2022/09/06 00:25:45;;;;;;;5.13;2.78;;;;;;;;;;5072128;28;20244;-16
2022/09/06 00:28:13;;;;;;;5.53;2.90;;;;;;;;;;5071457;28;20229;-16
2022/09/06 00:30:40;;;;;;;4.85;2.97;;;;;;;;;;5070521;28;20268;-16
2022/09/06 00:33:08;;;;;;;5.85;2.95;;;;;;;;;;5079225;28;20225;-16
2022/09/06 00:35:35;;;;;;;4.60;2.88;;;;;;;;;;5082362;28;20236;-16
2022/09/06 00:38:02;;;;;;;5.85;2.90;;;;;;;;;;5074559;28;20241;-16
2022/09/06 00:40:30;;;;;;;4.88;2.97;;;;;;;;;;5076099;28;20229;-16
2022/09/06 00:42:59;;;;;;;5.50;2.50;;;;;;;;;;5085737;28;20286;-16
2022/09/06 00:45:26;;;;;;;4.10;2.78;;;;;;;;;;5073412;28;20241;-17
2022/09/06 00:47:53;;;;;;;4.90;2.70;;;;;;;;;;5077247;28;20230;-16
2022/09/06 00:50:21;;;;;;;5.68;3.00;;;;;;;;;;5076476;28;20238;-16
2022/09/06 00:52:48;;;;;;;4.85;3.40;;;;;;;;;;5077781;28;20233;-16
2022/09/06 00:55:16;;;;;;;5.85;3.20;;;;;;;;;;5073510;28;20225;-16
2022/09/06 00:57:45;;;;;;;4.28;2.78;;;;;;;;;;5081236;28;20244;-16
2022/09/06 01:00:14;;;;;;;7.80;3.20;;;;;;;;;;5079845;28;20712;-17
2022/09/06 01:02:42;;;;;;;5.78;3.05;;;;;;;;;;5077233;28;20232;-17
2022/09/06 01:05:10;;;;;;;5.20;2.90;;;;;;;;;;5076644;28;20647;-17
2022/09/06 01:07:45;;;;;;;6.75;3.60;;;;;;;;;;5073959;28;20230;-16
2022/09/06 01:10:24;;;;;;;5.07;3.10;;;;;;;;;;5078794;28;20232;-17
2022/09/06 01:12:54;;;;;;;6.55;3.22;;;;;;;;;;5070067;28;20249;-17
2022/09/06 01:15:27;;;;;;;4.40;2.90;;;;;;;;;;5073144;28;20232;-16
2022/09/06 01:17:57;;;;;;;4.78;3.10;;;;;;;;;;5076090;28;20245;-17
2022/09/06 01:20:30;;;;;;;5.18;3.17;;;;;;;;;;5072732;28;20226;-17
2022/09/06 01:23:16;;;;;;;3.65;3.10;;;;;;;;;;5083129;28;20239;-17
2022/09/06 01:25:45;;;;;;;6.10;3.35;;;;;;;;;;5074431;28;20989;-17
2022/09/06 01:28:19;;;;;;;6.35;2.97;;;;;;;;;;5082191;28;20221;-17
2022/09/06 01:30:47;;;;;;;5.55;3.28;;;;;;;;;;5085369;28;20263;-17
2022/09/06 01:33:17;;;;;;;4.97;2.70;;;;;;;;;;5086859;28;20272;-17
2022/09/06 01:35:46;;;;;;;5.90;3.20;;;;;;;;;;5073548;28;20249;-17
2022/09/06 01:38:13;;;;;;;5.60;3.42;;;;;;;;;;5073658;28;20240;-16
2022/09/06 01:40:40;;;;;;;5.60;3.05;;;;;;;;;;5072562;28;20229;-16
2022/09/06 01:43:08;;;;;;;5.05;3.10;;;;;;;;;;5066690;28;20961;-16
2022/09/06 01:45:43;;;;;;;3.75;3.15;;;;;;;;;;5072679;28;20299;-16
2022/09/06 01:48:13;;;;;;;7.53;3.20;;;;;;;;;;5069247;28;20229;-16
2022/09/06 01:50:46;;;;;;;4.97;3.22;;;;;;;;;;5072882;28;20598;-16
2022/09/06 01:53:17;;;;;;;3.53;3.08;;;;;;;;;;5073800;28;20229;-16
2022/09/06 01:55:46;;;;;;;7.72;3.30;;;;;;;;;;5069803;28;20317;-16
2022/09/06 01:58:18;;;;;;;4.30;3.20;;;;;;;;;;5071713;28;20613;-16
2022/09/06 02:00:48;;;;;;;4.25;3.20;;;;;;;;;;5071007;28;20312;-16
2022/09/06 02:03:17;;;;;;;4.05;3.40;;;;;;;;;;5072499;28;20268;-16
2022/09/06 02:05:45;;;;;;;7.32;3.25;;;;;;;;;;5064802;28;20284;-16
2022/09/06 02:08:14;;;;;;;5.80;3.63;;;;;;;;;;5069015;28;20983;-16
2022/09/06 02:10:42;;;;;;;5.80;3.30;;;;;;;;;;5079013;28;20236;-16
2022/09/06 02:13:10;;;;;;;5.47;3.50;;;;;;;;;;5072642;28;20228;-16
2022/09/06 02:15:38;;;;;;;5.38;3.28;;;;;;;;;;5070105;28;20230;-16
2022/09/06 02:18:08;;;;;;;6.80;3.88;;;;;;;;;;5072048;28;20251;-16
2022/09/06 02:20:36;;;;;;;4.97;3.92;;;;;;;;;;5082123;22;20217;-14
2022/09/06 02:23:04;;;;;;;5.63;3.53;;;;;;;;;;5048044;28;20237;-14
2022/09/06 02:25:32;;;;;;;5.43;3.85;;;;;;;;;;5052461;28;20701;-13
2022/09/06 02:27:59;;;;;;;8.25;4.72;;;;;;;;;;5049498;28;20237;-14
2022/09/06 02:30:26;;;;;;;5.80;3.85;;;;;;;;;;5046784;28;20226;-14
2022/09/06 02:32:55;;;;;;;4.18;3.58;;;;;;;;;;5053826;28;20279;-14
2022/09/06 02:35:24;;;;;;;7.40;4.13;;;;;;;;;;5049160;28;20222;-13
2022/09/06 02:37:51;;;;;;;4.78;3.25;;;;;;;;;;5049983;28;20234;-14
2022/09/06 02:40:19;;;;;;;7.18;4.10;;;;;;;;;;5047223;28;20226;-13
2022/09/06 02:42:46;;;;;;;7.50;4.68;;;;;;;;;;5043071;28;20253;-14
2022/09/06 02:45:14;;;;;;;7.40;3.72;;;;;;;;;;5045975;28;20238;-14
2022/09/06 02:47:41;;;;;;;5.75;3.20;;;;;;;;;;5046843;28;20731;-14
2022/09/06 02:50:08;;;;;;;5.32;3.80;;;;;;;;;;5048913;28;20724;-14
2022/09/06 02:52:37;;;;;;;8.80;4.10;;;;;;;;;;5047854;28;20230;-13
2022/09/06 02:55:05;;;;;;;5.35;3.75;;;;;;;;;;5048469;28;20249;-13
2022/09/06 02:57:32;;;;;;;6.90;3.55;;;;;;;;;;5048584;28;20237;-14
2022/09/06 03:00:00;;;;;;;4.30;3.63;;;;;;;;;;5048703;28;20237;-14
2022/09/06 03:02:27;;;;;;;6.38;3.47;;;;;;;;;;5048679;28;20226;-14
2022/09/06 03:04:54;;;;;;;4.85;3.92;;;;;;;;;;5048378;28;20313;-14
2022/09/06 03:07:22;;;;;;;5.53;3.92;;;;;;;;;;5048120;28;20237;-14
2022/09/06 03:09:51;;;;;;;9.55;3.78;;;;;;;;;;5048736;28;20226;-14
2022/09/06 03:12:18;;;;;;;8.25;3.72;;;;;;;;;;5048821;28;20238;-14
2022/09/06 03:14:45;;;;;;;5.95;3.90;;;;;;;;;;5048527;28;20246;-14
2022/09/06 03:17:13;;;;;;;5.03;3.28;;;;;;;;;;5047486;28;20242;-14
2022/09/06 03:19:40;;;;;;;6.03;3.55;;;;;;;;;;5051730;28;20249;-14
2022/09/06 03:22:07;;;;;;;4.72;3.72;;;;;;;;;;5066277;28;20238;-14
2022/09/06 03:24:35;;;;;;;4.10;3.70;;;;;;;;;;5071297;28;20237;-14
2022/09/06 03:27:04;;;;;;;7.57;3.90;;;;;;;;;;5071377;28;20719;-14
2022/09/06 03:29:31;;;;;;;4.30;3.60;;;;;;;;;;5071544;28;20229;-14
2022/09/06 03:31:58;;;;;;;5.20;3.53;;;;;;;;;;5071693;28;20229;-14
2022/09/06 03:34:26;;;;;;;5.72;3.50;;;;;;;;;;5072342;28;20719;-14
2022/09/06 03:36:53;;;;;;;4.32;3.20;;;;;;;;;;5071944;28;20226;-14
2022/09/06 03:39:20;;;;;;;4.53;3.25;;;;;;;;;;5072130;28;20245;-14
2022/09/06 03:41:48;;;;;;;5.55;3.35;;;;;;;;;;5071572;28;20236;-14
2022/09/06 03:44:16;;;;;;;5.80;3.58;;;;;;;;;;5072833;28;20782;-14
2022/09/06 03:46:45;;;;;;;5.32;3.60;;;;;;;;;;5071241;28;20228;-14
2022/09/06 03:49:12;;;;;;;5.03;3.33;;;;;;;;;;5072541;28;20752;-14
2022/09/06 03:51:39;;;;;;;7.32;3.50;;;;;;;;;;5070916;28;20241;-14
2022/09/06 03:54:07;;;;;;;5.60;3.28;;;;;;;;;;5068919;28;20229;-14
2022/09/06 03:56:34;;;;;;;6.47;3.63;;;;;;;;;;5071197;28;20230;-14
2022/09/06 03:59:01;;;;;;;9.10;4.32;;;;;;;;;;5071559;28;20241;-14
2022/09/06 04:01:30;;;;;;;5.97;4.10;;;;;;;;;;5073310;28;20233;-13
2022/09/06 04:03:58;;;;;;;5.70;4.90;;;;;;;;;;5070883;28;21081;-14
2022/09/06 04:06:25;;;;;;;7.75;4.55;;;;;;;;;;5073947;28;20229;-13
2022/09/06 04:08:52;;;;;;;7.03;3.97;;;;;;;;;;5074456;28;20225;-13
2022/09/06 04:11:20;;;;;;;9.15;4.50;;;;;;;;;;5072253;28;21055;-14
2022/09/06 04:13:47;;;;;;;3.83;3.20;;;;;;;;;;5068885;28;20240;-14
2022/09/06 04:16:16;;;;;;;4.78;3.75;;;;;;;;;;5070316;28;20225;-14
2022/09/06 04:18:45;;;;;;;7.90;4.10;;;;;;;;;;5071288;28;20234;-14
2022/09/06 04:21:12;;;;;;;4.63;4.05;;;;;;;;;;5069926;28;20736;-14
2022/09/06 04:23:39;;;;;;;5.57;3.80;;;;;;;;;;5072365;28;20233;-14
2022/09/06 04:26:07;;;;;;;6.95;4.20;;;;;;;;;;5068281;28;20238;-14
2022/09/06 04:28:34;;;;;;;5.93;4.03;;;;;;;;;;5070879;28;20226;-14
2022/09/06 04:31:02;;;;;;;4.95;3.78;;;;;;;;;;5069676;28;20233;-14
2022/09/06 04:33:31;;;;;;;9.55;4.22;;;;;;;;;;5072209;28;20233;-14
2022/09/06 04:36:00;;;;;;;4.90;4.05;;;;;;;;;;5070682;28;20230;-13
2022/09/06 04:38:28;;;;;;;8.77;3.92;;;;;;;;;;5071083;28;20239;-13
2022/09/06 04:40:56;;;;;;;5.80;3.42;;;;;;;;;;5070463;28;20276;-13
2022/09/06 04:43:23;;;;;;;4.57;3.47;;;;;;;;;;5070556;28;20233;-13
2022/09/06 04:45:50;;;;;;;8.77;4.10;;;;;;;;;;5072434;28;20712;-15
2022/09/06 04:48:18;;;;;;;8.35;3.63;;;;;;;;;;5070361;28;20259;-15
2022/09/06 04:50:45;;;;;;;10.95;4.00;;;;;;;;;;5072465;28;20264;-15
2022/09/06 04:53:15;;;;;;;7.05;3.65;;;;;;;;;;5070215;28;20233;-15
2022/09/06 04:55:42;;;;;;;5.30;3.55;;;;;;;;;;5069878;28;20693;-15
2022/09/06 04:58:10;;;;;;;5.00;3.38;;;;;;;;;;5071635;28;20673;-15
2022/09/06 05:00:37;;;;;;;10.15;4.15;;;;;;;;;;5070431;28;20245;-15
2022/09/06 05:03:05;;;;;;;5.85;3.88;;;;;;;;;;5070595;28;20230;-15
2022/09/06 05:05:32;;;;;;;6.25;3.97;;;;;;;;;;5070447;28;20237;-15
2022/09/06 05:07:59;;;;;;;5.53;4.25;;;;;;;;;;5070368;28;20232;-15
2022/09/06 05:10:28;;;;;;;6.45;3.92;;;;;;;;;;5068279;28;20244;-15
2022/09/06 05:12:55;;;;;;;5.25;4.07;;;;;;;;;;5070174;28;20241;-15
2022/09/06 05:15:23;;;;;;;5.85;3.83;;;;;;;;;;5076517;28;20225;-14
2022/09/06 05:17:50;;;;;;;5.35;3.85;;;;;;;;;;5071146;28;20240;-15
2022/09/06 05:20:18;;;;;;;5.32;3.53;;;;;;;;;;5070152;28;20241;-14
2022/09/06 05:22:51;;;;;;;5.47;3.78;;;;;;;;;;5069505;28;20244;-15
2022/09/06 05:25:18;;;;;;;4.95;4.05;;;;;;;;;;5070507;28;20236;-15
2022/09/06 05:27:47;;;;;;;6.80;4.22;;;;;;;;;;5070739;28;20225;-15
2022/09/06 05:30:16;;;;;;;6.53;4.28;;;;;;;;;;5070066;28;20233;-15
2022/09/06 05:32:44;;;;;;;6.05;4.07;;;;;;;;;;5069823;28;20229;-15
2022/09/06 05:35:11;;;;;;;5.72;3.50;;;;;;;;;;5069843;28;20221;-15
2022/09/06 05:37:38;;;;;;;8.73;4.10;;;;;;;;;;5069534;28;20237;-15
2022/09/06 05:40:06;;;;;;;6.30;4.18;;;;;;;;;;5069943;28;20237;-15
2022/09/06 05:42:34;;;;;;;5.63;4.05;;;;;;;;;;5068911;28;20252;-14
2022/09/06 05:45:02;;;;;;;5.40;4.25;;;;;;;;;;5069523;28;20281;-15
2022/09/06 05:47:34;;;;;;;6.53;4.03;;;;;;;;;;5067529;28;20287;-15
2022/09/06 05:50:01;;;;;;;7.22;4.05;;;;;;;;;;5068814;28;20233;-15
2022/09/06 05:52:29;;;;;;;6.85;4.85;;;;;;;;;;5069380;28;20235;-15
2022/09/06 05:54:56;;;;;;;8.00;4.78;;;;;;;;;;5068922;28;20232;-15
2022/09/06 05:57:24;;;;;;;5.72;4.47;;;;;;;;;;5068666;28;20237;-15
2022/09/06 05:59:52;;;;;;;6.53;4.50;;;;;;;;;;5069006;28;20237;-14
2022/09/06 06:02:21;;;;;;;6.45;4.63;;;;;;;;;;5064600;28;20227;-15
2022/09/06 06:04:48;;;;;;;5.90;4.35;;;;;;;;;;5068887;28;20729;-15
2022/09/06 06:07:15;;;;;;;4.47;4.07;;;;;;;;;;5068143;28;21004;-15
2022/09/06 06:09:43;;;;;;;5.43;4.20;;;;;;;;;;5069604;28;20256;-15
2022/09/06 06:12:10;;;;;;;7.78;4.20;;;;;;;;;;5068221;28;20711;-15
2022/09/06 06:14:38;;;;;;;5.32;4.00;;;;;;;;;;5068137;28;20766;-14
2022/09/06 06:17:05;;;;;;;6.53;4.13;;;;;;;;;;5068668;28;20233;-15
2022/09/06 06:19:34;;;;;;;6.53;3.97;;;;;;;;;;5068676;28;20229;-15
2022/09/06 06:22:01;;;;;;;5.22;3.53;;;;;;;;;;5068634;28;20249;-15
2022/09/06 06:24:29;;;;;;;7.53;3.95;;;;;;;;;;5068674;28;20237;-15
2022/09/06 06:26:56;;;;;;;9.05;4.43;;;;;;;;;;5067184;28;20229;-15
2022/09/06 06:29:24;;;;;;;5.95;4.22;;;;;;;;;;5069838;28;20229;-15
2022/09/06 06:31:51;;;;;;;6.60;4.40;;;;;;;;;;5066372;28;20233;-14
2022/09/06 06:34:20;;;;;;;6.05;4.55;;;;;;;;;;5068805;28;20233;-15
2022/09/06 06:36:49;;;;;;;9.07;4.85;;;;;;;;;;5068785;28;20239;-15
2022/09/06 06:39:16;;;;;;;6.95;4.38;;;;;;;;;;5069250;28;20225;-15
2022/09/06 06:41:44;;;;;;;6.63;4.45;;;;;;;;;;5069336;28;20252;-15
2022/09/06 06:44:11;;;;;;;5.70;4.15;;;;;;;;;;5068191;28;20233;-15
2022/09/06 06:46:40;;;;;;;5.43;4.50;;;;;;;;;;5065591;28;20423;-15
2022/09/06 06:49:08;;;;;;;10.95;4.95;;;;;;;;;;5068160;28;20233;-15
2022/09/06 06:51:36;;;;;;;13.23;5.40;;;;;;;;;;5068090;28;21028;-15
2022/09/06 06:54:05;;;;;;;8.43;5.40;;;;;;;;;;5069043;28;20226;-15
2022/09/06 06:56:33;;;;;;;8.45;5.32;;;;;;;;;;5073966;28;20231;-15
2022/09/06 06:59:01;;;;;;;6.78;5.30;;;;;;;;;;5071839;28;20446;-15
2022/09/06 07:01:29;;;;;;;7.00;4.63;;;;;;;;;;5073573;28;20617;-15
2022/09/06 07:03:56;;;;;;;8.23;4.90;;;;;;;;;;5070452;28;20452;-15
2022/09/06 07:06:24;;;;;;;9.65;4.57;;;;;;;;;;5070681;28;20225;-15
2022/09/06 07:09:13;;;;;;;6.82;5.43;;;;;;;;;;5072280;28;20603;-15
2022/09/06 07:11:40;;;;;;;6.20;5.10;;;;;;;;;;5084345;28;20241;-15
2022/09/06 07:14:08;;;;;;;14.63;6.13;;;;;;;;;;5073791;28;20233;-15
2022/09/06 07:16:36;;;;;;;6.82;5.75;;;;;;;;;;5073195;28;20696;-15
2022/09/06 07:19:03;;;;;;;11.52;6.40;;;;;;;;;;5071883;28;20229;-15
2022/09/06 07:21:31;;;;;;;8.38;5.50;;;;;;;;;;5075042;28;20251;-15
2022/09/06 07:24:06;;;;;;;7.38;5.47;;;;;;;;;;5071675;28;20768;-15
2022/09/06 07:26:36;;;;;;;7.28;5.88;;;;;;;;;;5071794;28;20229;-15
2022/09/06 07:29:05;;;;;;;6.70;5.55;;;;;;;;;;5078121;28;20225;-15
2022/09/06 07:31:33;;;;;;;8.75;6.13;;;;;;;;;;5071744;28;20259;-15
2022/09/06 07:34:20;;;;;;;9.75;5.80;;;;;;;;;;5064059;28;20225;-15
2022/09/06 07:36:48;;;;;;;9.02;5.07;;;;;;;;;;5068928;28;20256;-15
2022/09/06 07:39:15;;;;;;;14.30;5.45;;;;;;;;;;5069893;28;20463;-15
2022/09/06 07:41:44;;;;;;;8.43;5.63;;;;;;;;;;5071337;28;20600;-15
2022/09/06 07:44:11;;;;;;;15.30;5.38;;;;;;;;;;5071641;28;20237;-15
2022/09/06 07:46:39;;;;;;;11.20;6.20;;;;;;;;;;5080891;28;20232;-15
2022/09/06 07:49:06;;;;;;;10.57;5.85;;;;;;;;;;5071797;28;20226;-15
2022/09/06 07:51:33;;;;;;;8.75;4.95;;;;;;;;;;5071146;28;20704;-15
2022/09/06 07:54:01;;;;;;;8.60;6.20;;;;;;;;;;5071702;28;20269;-15
2022/09/06 07:56:50;;;;;;;8.07;5.53;;;;;;;;;;5072159;28;20260;-15
2022/09/06 07:59:17;;;;;;;12.13;5.53;;;;;;;;;;5075867;28;20229;-15
2022/09/06 08:01:46;;;;;;;9.38;6.85;;;;;;;;;;5076929;28;20289;-15
2022/09/06 08:04:13;;;;;;;7.60;5.75;;;;;;;;;;5069835;28;20241;-15
2022/09/06 08:06:41;;;;;;;6.85;5.53;;;;;;;;;;5071455;28;20236;-15
2022/09/06 08:09:29;;;;;;;9.38;6.13;;;;;;;;;;5066294;28;20230;-15
2022/09/06 08:11:57;;;;;;;6.47;5.10;;;;;;;;;;5071032;28;20237;-15
2022/09/06 08:14:25;;;;;;;11.63;6.78;;;;;;;;;;5070508;28;20715;-15
2022/09/06 08:16:52;;;;;;;9.90;8.05;;;;;;;;;;5071000;28;20230;-15
2022/09/06 08:19:19;;;;;;;10.82;6.95;;;;;;;;;;5071151;28;20245;-15
2022/09/06 08:21:47;;;;;;;11.02;6.75;;;;;;;;;;5071933;28;20249;-15
2022/09/06 08:24:14;;;;;;;9.57;6.45;;;;;;;;;;5078032;28;20236;-15
2022/09/06 08:26:42;;;;;;;9.45;6.60;;;;;;;;;;5071236;28;20240;-15
2022/09/06 08:29:11;;;;;;;9.10;6.32;;;;;;;;;;5073597;28;20236;-15
2022/09/06 08:31:38;;;;;;;13.18;7.00;;;;;;;;;;5076663;28;20229;-15
2022/09/06 08:34:06;;;;;;;8.98;6.45;;;;;;;;;;5071668;28;20229;-15
2022/09/06 08:36:33;;;;;;;10.55;6.13;;;;;;;;;;5079096;28;20235;-15
2022/09/06 08:39:01;;;;;;;12.40;5.95;;;;;;;;;;5070677;28;20233;-15
2022/09/06 08:41:30;;;;;;;12.52;5.45;;;;;;;;;;5071635;28;20236;-14
2022/09/06 08:43:58;;;;;;;9.55;5.30;;;;;;;;;;5074989;28;20240;-15
2022/09/06 08:46:48;;;;;;;11.38;6.40;;;;;;;;;;5069473;28;20234;-15
2022/09/06 08:49:16;;;;;;;21.80;6.32;;;;;;;;;;5070286;28;20320;-15
2022/09/06 08:51:50;;;;;;;15.05;5.85;;;;;;;;;;5070615;28;20229;-15
2022/09/06 08:54:18;;;;;;;47.75;6.65;;;;;;;;;;5070507;28;20235;-14
2022/09/06 08:56:52;;;;;;;21.48;6.13;;;;;;;;;;5070643;28;20236;-14
2022/09/06 08:59:19;;;;;;;21.50;6.03;;;;;;;;;;5072662;28;21090;-14
2022/09/06 09:01:49;;;;;;;15.00;6.72;;;;;;;;;;5077486;28;20233;-14
2022/09/06 09:04:18;;;;;;;14.57;6.40;;;;;;;;;;5072102;28;20685;-15
2022/09/06 09:06:45;;;;;;;10.32;5.68;;;;;;;;;;5070955;28;20512;-15
2022/09/06 09:09:13;;;;;;;8.85;6.05;;;;;;;;;;5070827;28;20237;-14
2022/09/06 09:11:40;;;;;;;11.38;5.40;;;;;;;;;;5071332;28;20613;-15
2022/09/06 09:14:08;;;;;;;7.90;5.00;;;;;;;;;;5070485;28;20236;-15
2022/09/06 09:16:35;;;;;;;10.57;5.68;;;;;;;;;;5070043;28;20222;-15
2022/09/06 09:19:05;;;;;;;11.02;5.53;;;;;;;;;;5064729;28;20240;-15
2022/09/06 09:21:33;;;;;;;7.07;4.60;;;;;;;;;;5070220;28;20237;-15
2022/09/06 09:24:02;;;;;;;11.48;5.70;;;;;;;;;;5070387;28;20231;-15
2022/09/06 09:26:30;;;;;;;8.07;4.80;;;;;;;;;;5070867;28;20233;-15
2022/09/06 09:29:01;;;;;;;10.95;5.03;;;;;;;;;;5070468;28;20233;-15
2022/09/06 09:31:33;;;;;;;11.70;6.45;;;;;;;;;;5077358;28;20253;-14
2022/09/06 09:34:03;;;;;;;9.80;4.75;;;;;;;;;;5070491;28;20307;-15
2022/09/06 09:36:32;;;;;;;10.57;4.95;;;;;;;;;;5070346;28;20225;-15
2022/09/06 09:38:59;;;;;;;8.50;4.47;;;;;;;;;;5069546;28;20240;-15
2022/09/06 09:41:28;;;;;;;8.52;4.25;;;;;;;;;;5066480;28;20324;-15
2022/09/06 09:43:56;;;;;;;5.72;4.15;;;;;;;;;;5069393;28;20237;-15
2022/09/06 09:46:31;;;;;;;8.93;5.10;;;;;;;;;;5069391;28;20233;-14
2022/09/06 09:49:00;;;;;;;6.60;4.80;;;;;;;;;;5069930;28;20237;-14
2022/09/06 09:51:28;;;;;;;7.63;3.70;;;;;;;;;;5068844;28;20263;-14
2022/09/06 09:53:57;;;;;;;6.35;3.85;;;;;;;;;;5071150;28;20235;-14
2022/09/06 09:56:26;;;;;;;10.05;4.28;;;;;;;;;;5069242;28;20229;-14
2022/09/06 09:58:54;;;;;;;6.90;4.13;;;;;;;;;;5070328;28;20237;-14
2022/09/06 10:01:22;;;;;;;9.85;4.63;;;;;;;;;;5070188;28;20229;-14
2022/09/06 10:03:50;;;;;;;10.02;4.68;;;;;;;;;;5072893;28;20237;-14
2022/09/06 10:06:37;;;;;;;5.55;3.78;;;;;;;;;;5069771;28;20237;-14
2022/09/06 10:09:30;;;;;;;6.80;3.42;;;;;;;;;;5072855;28;20228;-14
2022/09/06 10:11:58;;;;;;;6.78;3.72;;;;;;;;;;5077261;28;20229;-14
2022/09/06 10:14:28;;;;;;;8.05;3.30;;;;;;;;;;5068445;28;20734;-14
2022/09/06 10:16:55;;;;;;;6.72;3.35;;;;;;;;;;5068647;28;20230;-14
2022/09/06 10:19:24;;;;;;;7.15;3.72;;;;;;;;;;5069792;28;20234;-14
2022/09/06 10:21:51;;;;;;;7.30;3.35;;;;;;;;;;5066347;28;20240;-14
2022/09/06 10:24:20;;;;;;;4.55;3.28;;;;;;;;;;5070253;28;20229;-14
2022/09/06 10:26:56;;;;;;;8.13;3.38;;;;;;;;;;5077806;28;20233;-14
2022/09/06 10:29:29;;;;;;;6.60;3.92;;;;;;;;;;5072438;28;20233;-14
2022/09/06 10:32:00;;;;;;;6.05;2.90;;;;;;;;;;5076546;28;20229;-14
2022/09/06 10:34:37;;;;;;;7.95;3.17;;;;;;;;;;5072779;28;20233;-14
2022/09/06 10:37:07;;;;;;;8.38;3.38;;;;;;;;;;5076525;28;20237;-14
2022/09/06 10:39:37;;;;;;;9.18;3.42;;;;;;;;;;5073032;28;20635;-14
2022/09/06 10:42:08;;;;;;;3.90;2.20;;;;;;;;;;5077180;28;20985;-14
2022/09/06 10:44:40;;;;;;;6.13;2.78;;;;;;;;;;5072327;28;20237;-14
2022/09/06 10:47:08;;;;;;;4.40;2.78;;;;;;;;;;5071675;28;20233;-14
2022/09/06 10:49:36;;;;;;;3.05;2.47;;;;;;;;;;5072285;28;20289;-14
2022/09/06 10:52:04;;;;;;;7.28;2.78;;;;;;;;;;5072574;28;20225;-14
2022/09/06 10:54:32;;;;;;;4.07;2.70;;;;;;;;;;5073109;28;20727;-14
2022/09/06 10:57:00;;;;;;;5.50;2.53;;;;;;;;;;5075797;28;20995;-14
2022/09/06 10:59:30;;;;;;;7.45;2.80;;;;;;;;;;5072271;28;20242;-14
2022/09/06 11:02:03;;;;;;;5.93;2.70;;;;;;;;;;5071791;28;20233;-14
2022/09/06 11:04:31;;;;;;;5.90;2.70;;;;;;;;;;5079502;28;20384;-14
2022/09/06 11:06:59;;;;;;;3.85;2.70;;;;;;;;;;5077950;28;20693;-14
2022/09/06 11:09:27;;;;;;;3.38;2.45;;;;;;;;;;5071786;28;20233;-14
2022/09/06 11:12:03;;;;;;;3.72;2.53;;;;;;;;;;5076107;28;20236;-14
2022/09/06 11:14:32;;;;;;;3.58;2.00;;;;;;;;;;5058441;28;20604;-14
2022/09/06 11:17:00;;;;;;;6.05;2.30;;;;;;;;;;5072013;28;20230;-14
2022/09/06 11:19:28;;;;;;;3.83;2.35;;;;;;;;;;5072565;28;20268;-14
2022/09/06 11:22:00;;;;;;;4.68;2.30;;;;;;;;;;5079919;28;20244;-14
2022/09/06 11:24:30;;;;;;;4.07;2.40;;;;;;;;;;5072441;28;20263;-14
2022/09/06 11:26:58;;;;;;;5.43;2.47;;;;;;;;;;5072163;28;20240;-14
2022/09/06 11:29:26;;;;;;;4.60;2.20;;;;;;;;;;5073603;28;20233;-14
2022/09/06 11:31:55;;;;;;;8.32;2.53;;;;;;;;;;5071051;28;20229;-14
2022/09/06 11:34:44;;;;;;;7.47;2.35;;;;;;;;;;5071700;28;20681;-14
2022/09/06 11:37:22;;;;;;;5.50;2.22;;;;;;;;;;5077493;28;20229;-14
2022/09/06 11:39:49;;;;;;;4.15;2.28;;;;;;;;;;5072188;28;20775;-14
2022/09/06 11:42:40;;;;;;;6.22;2.47;;;;;;;;;;5082808;28;20251;-14
2022/09/06 11:45:20;;;;;;;3.85;2.30;;;;;;;;;;5071566;28;20328;-14
2022/09/06 11:47:48;;;;;;;4.55;2.25;;;;;;;;;;5071445;28;20252;-14
2022/09/06 11:50:23;;;;;;;3.25;2.38;;;;;;;;;;5071732;28;20234;-14
2022/09/06 11:52:50;;;;;;;6.82;2.05;;;;;;;;;;5071749;28;20308;-14
2022/09/06 11:55:18;;;;;;;2.75;2.10;;;;;;;;;;5070107;28;20265;-14
2022/09/06 11:57:51;;;;;;;4.32;1.98;;;;;;;;;;5070337;28;20240;-14
2022/09/06 12:00:22;;;;;;;4.63;2.30;;;;;;;;;;5070720;28;20596;-14
2022/09/06 12:02:51;;;;;;;2.78;1.80;;;;;;;;;;5071996;28;20225;-14
2022/09/06 12:05:21;;;;;;;4.85;1.85;;;;;;;;;;5070307;28;20235;-14
2022/09/06 12:08:07;;;;;;;8.10;1.95;;;;;;;;;;5071865;28;20714;-14
2022/09/06 12:10:41;;;;;;;2.35;1.60;;;;;;;;;;5070747;28;20225;-14
2022/09/06 12:13:24;;;;;;;2.78;1.70;;;;;;;;;;5073817;28;20892;-14
2022/09/06 12:15:52;;;;;;;5.28;2.10;;;;;;;;;;5068022;28;20225;-14
2022/09/06 12:18:34;;;;;;;4.15;2.15;;;;;;;;;;5071490;28;20234;-14
2022/09/06 12:21:03;;;;;;;5.25;1.73;;;;;;;;;;5070134;28;20231;-14
2022/09/06 12:23:43;;;;;;;2.17;1.98;;;;;;;;;;5070651;28;20233;-14
2022/09/06 12:26:10;;;;;;;2.35;1.95;;;;;;;;;;5068819;28;20299;-14
2022/09/06 12:28:40;;;;;;;6.80;2.20;;;;;;;;;;5071566;28;20238;-14
2022/09/06 12:31:20;;;;;;;2.88;2.00;;;;;;;;;;5073966;28;20230;-14
2022/09/06 12:33:47;;;;;;;6.63;2.10;;;;;;;;;;5071592;28;20221;-14
2022/09/06 12:36:17;;;;;;;6.57;2.40;;;;;;;;;;5069790;28;20245;-14
2022/09/06 12:38:54;;;;;;;4.07;1.92;;;;;;;;;;5066384;28;20227;-14
2022/09/06 12:41:21;;;;;;;10.02;2.25;;;;;;;;;;5072059;28;20320;-14
2022/09/06 12:43:48;;;;;;;5.88;2.30;;;;;;;;;;5071919;28;20241;-14
2022/09/06 12:46:16;;;;;;;4.57;2.05;;;;;;;;;;5077201;28;20333;-14
2022/09/06 12:48:43;;;;;;;7.18;2.38;;;;;;;;;;5063531;28;20265;-14
2022/09/06 12:51:15;;;;;;;8.23;2.00;;;;;;;;;;5070753;28;20236;-14
2022/09/06 12:53:50;;;;;;;4.35;1.73;;;;;;;;;;5069856;28;20243;-14
2022/09/06 12:56:19;;;;;;;2.45;2.08;;;;;;;;;;5079478;28;20235;-14
2022/09/06 12:58:46;;;;;;;4.95;1.98;;;;;;;;;;5072699;28;20320;-14
2022/09/06 13:01:14;;;;;;;4.00;2.00;;;;;;;;;;5071642;28;20346;-14
2022/09/06 13:03:43;;;;;;;4.38;1.92;;;;;;;;;;5069833;28;20646;-14
2022/09/06 13:06:12;;;;;;;4.05;2.33;;;;;;;;;;5069023;28;20233;-14
2022/09/06 13:08:41;;;;;;;3.40;1.60;;;;;;;;;;5067548;28;20233;-14
2022/09/06 13:11:10;;;;;;;5.82;2.63;;;;;;;;;;5067631;28;20241;-14
2022/09/06 13:13:37;;;;;;;9.23;2.25;;;;;;;;;;5067564;28;20260;-14
2022/09/06 13:16:05;;;;;;;4.28;2.20;;;;;;;;;;5070182;28;20233;-14
2022/09/06 13:18:34;;;;;;;10.93;2.17;;;;;;;;;;5065787;28;20291;-14
2022/09/06 13:21:02;;;;;;;2.95;1.95;;;;;;;;;;5067715;28;20708;-15
2022/09/06 13:23:29;;;;;;;2.75;2.25;;;;;;;;;;5069569;28;20233;-14
2022/09/06 13:25:57;;;;;;;3.85;2.00;;;;;;;;;;5066306;28;20698;-14
2022/09/06 13:28:26;;;;;;;5.22;2.08;;;;;;;;;;5068295;28;20693;-14
2022/09/06 13:31:07;;;;;;;4.00;2.03;;;;;;;;;;5069826;28;20316;-14
2022/09/06 13:33:36;;;;;;;5.85;2.10;;;;;;;;;;5067510;28;20235;-14
2022/09/06 13:36:20;;;;;;;4.68;1.88;;;;;;;;;;5069986;28;20237;-14
2022/09/06 13:38:48;;;;;;;6.07;2.10;;;;;;;;;;5066351;28;20225;-15
2022/09/06 13:41:37;;;;;;;3.25;1.90;;;;;;;;;;5067532;28;21043;-14
2022/09/06 13:44:07;;;;;;;3.30;2.30;;;;;;;;;;5066592;28;20233;-14
2022/09/06 13:46:35;;;;;;;2.45;1.95;;;;;;;;;;5067295;28;20236;-14
2022/09/06 13:49:04;;;;;;;9.27;2.05;;;;;;;;;;5068206;28;20230;-14
2022/09/06 13:51:32;;;;;;;5.60;2.05;;;;;;;;;;5068536;28;20233;-14
2022/09/06 13:54:03;;;;;;;2.83;1.88;;;;;;;;;;5065779;28;20236;-14
2022/09/06 13:56:31;;;;;;;5.18;2.20;;;;;;;;;;5067400;28;20727;-14
2022/09/06 13:58:58;;;;;;;4.55;2.20;;;;;;;;;;5067830;28;20225;-14
2022/09/06 14:01:27;;;;;;;2.25;1.70;;;;;;;;;;5065620;28;20233;-14
2022/09/06 14:03:54;;;;;;;3.35;2.30;;;;;;;;;;5066870;28;20318;-14
2022/09/06 14:06:22;;;;;;;2.90;1.80;;;;;;;;;;5067757;28;20237;-14
2022/09/06 14:08:49;;;;;;;6.38;2.00;;;;;;;;;;5066725;28;20237;-14
2022/09/06 14:11:33;;;;;;;3.97;1.95;;;;;;;;;;5066895;28;20237;-14
2022/09/06 14:14:00;;;;;;;2.67;1.75;;;;;;;;;;5069779;28;20235;-14
2022/09/06 14:16:29;;;;;;;4.07;2.08;;;;;;;;;;5071252;28;20763;-14
2022/09/06 14:18:57;;;;;;;3.17;1.90;;;;;;;;;;5066673;28;20233;-14
2022/09/06 14:21:24;;;;;;;3.83;1.60;;;;;;;;;;5068089;28;20245;-14
2022/09/06 14:23:51;;;;;;;4.68;1.90;;;;;;;;;;5068754;28;20244;-14
2022/09/06 14:26:19;;;;;;;3.58;1.67;;;;;;;;;;5068634;28;20244;-14
2022/09/06 14:28:47;;;;;;;6.05;2.53;;;;;;;;;;5068428;28;20229;-14
2022/09/06 14:31:15;;;;;;;4.85;2.10;;;;;;;;;;5066532;28;20229;-14
2022/09/06 14:33:44;;;;;;;6.75;2.30;;;;;;;;;;5068103;28;20233;-14
2022/09/06 14:36:12;;;;;;;3.25;2.17;;;;;;;;;;5061162;28;20257;-14
2022/09/06 14:38:39;;;;;;;2.92;1.70;;;;;;;;;;5067208;28;20233;-15
2022/09/06 14:41:07;;;;;;;3.70;1.98;;;;;;;;;;5066638;28;20240;-14
2022/09/06 14:43:35;;;;;;;2.72;1.80;;;;;;;;;;5067664;28;20237;-14
2022/09/06 14:46:04;;;;;;;6.63;2.40;;;;;;;;;;5066732;28;21010;-15
2022/09/06 14:48:31;;;;;;;3.15;1.98;;;;;;;;;;5066541;28;20316;-14
2022/09/06 14:51:06;;;;;;;5.40;2.22;;;;;;;;;;5067610;28;20238;-14
2022/09/06 14:53:33;;;;;;;3.60;2.10;;;;;;;;;;5066759;28;20289;-17